Time;durP1;ratioP1;P1;durP2;ratioP2;P2;SDS_P1;SDS_P2;PMS_P1;PMS_P2;Temp;Humidity;BMP_temperature;BMP_pressure;BME280_temperature;BME280_humidity;BME280_pressure;Samples;Min_cycle;Max_cycle;Signal;HPM_P1;HPM_P2
2023/06/13 00:02:07;;;;;;;3.78;2.85;;;;;;;24.29;54.73;95960.81;5036975;28;22234;-29
2023/06/13 00:04:33;;;;;;;3.38;2.70;;;;;;;24.27;54.83;95957.09;5036804;28;20024;-30
2023/06/13 00:06:58;;;;;;;3.47;2.58;;;;;;;24.30;54.84;95959.53;5043705;28;20017;-28
2023/06/13 00:09:25;;;;;;;4.47;2.70;;;;;;;24.16;55.11;95957.22;5036288;28;20400;-31
2023/06/13 00:11:52;;;;;;;3.53;2.60;;;;;;;24.34;54.63;95951.69;5036245;28;20221;-29
2023/06/13 00:14:19;;;;;;;3.60;2.28;;;;;;;24.38;54.56;95948.56;5036046;28;20033;-29
2023/06/13 00:16:47;;;;;;;3.40;1.98;;;;;;;24.39;54.50;95952.84;5035944;28;20021;-29
2023/06/13 00:19:13;;;;;;;4.43;2.15;;;;;;;24.23;54.51;95960.16;5043767;28;20036;-29
2023/06/13 00:21:39;;;;;;;3.83;2.17;;;;;;;24.40;54.27;95965.44;5043132;28;20113;-28
2023/06/13 00:24:05;;;;;;;3.58;2.10;;;;;;;24.38;54.13;95973.53;5036204;28;20013;-30
2023/06/13 00:26:30;;;;;;;2.53;2.33;;;;;;;24.37;54.29;95971.28;5036183;28;20034;-28
2023/06/13 00:28:55;;;;;;;4.97;2.17;;;;;;;24.33;54.38;95964.03;5036113;28;20095;-29
2023/06/13 00:31:21;;;;;;;3.55;2.47;;;;;;;24.42;53.85;95959.34;5036009;28;20029;-29
2023/06/13 00:33:50;;;;;;;2.53;2.10;;;;;;;24.55;53.60;95960.13;5042837;28;20017;-29
2023/06/13 00:36:19;;;;;;;5.05;2.53;;;;;;;24.49;53.72;95955.94;5035705;28;20033;-30
2023/06/13 00:38:47;;;;;;;3.22;2.35;;;;;;;24.10;54.45;95959.38;5043164;28;20029;-29
2023/06/13 00:41:13;;;;;;;4.00;2.10;;;;;;;24.22;54.42;95952.38;5041044;28;20188;-29
2023/06/13 00:43:39;;;;;;;4.03;2.40;;;;;;;24.13;54.14;95953.50;5037367;28;20025;-29
2023/06/13 00:46:05;;;;;;;4.25;2.70;;;;;;;24.06;54.34;95945.06;5039233;28;20468;-29
2023/06/13 00:48:32;;;;;;;2.58;2.15;;;;;;;24.06;54.20;95942.28;5039351;28;20080;-29
2023/06/13 00:50:57;;;;;;;2.90;1.95;;;;;;;24.13;53.78;95942.41;5043053;28;20021;-29
2023/06/13 00:53:23;;;;;;;2.47;2.10;;;;;;;24.12;53.55;95935.38;5035565;28;20542;-29
2023/06/13 00:55:50;;;;;;;2.10;1.80;;;;;;;24.30;53.23;95933.84;5035599;28;20052;-29
2023/06/13 00:58:16;;;;;;;2.42;1.73;;;;;;;24.33;53.09;95932.81;5033831;28;20445;-29
2023/06/13 01:00:45;;;;;;;2.55;1.75;;;;;;;24.41;53.03;95927.38;5035186;28;20477;-29
2023/06/13 01:03:14;;;;;;;3.40;1.83;;;;;;;24.31;53.22;95925.03;5049807;28;20385;-29
2023/06/13 01:05:40;;;;;;;3.70;2.22;;;;;;;24.21;53.30;95928.69;5035449;28;20021;-28
2023/06/13 01:08:09;;;;;;;2.20;1.70;;;;;;;24.25;53.15;95937.47;5035562;28;20147;-29
2023/06/13 01:10:37;;;;;;;2.92;1.92;;;;;;;24.30;52.83;95931.09;5035218;28;20488;-29
2023/06/13 01:13:21;;;;;;;2.08;1.88;;;;;;;24.16;53.36;95935.06;5035395;28;20033;-29
2023/06/13 01:16:02;;;;;;;3.38;2.25;;;;;;;24.14;53.71;95932.06;5035355;28;20025;-29
2023/06/13 01:18:33;;;;;;;3.38;2.40;;;;;;;24.12;54.12;95924.28;5042576;28;20033;-32
2023/06/13 01:21:00;;;;;;;3.33;1.80;;;;;;;24.22;53.38;95921.88;5032968;28;20052;-29
2023/06/13 01:23:32;;;;;;;2.47;2.00;;;;;;;24.08;54.06;95923.13;5041618;28;20380;-29
2023/06/13 01:26:15;;;;;;;2.92;2.03;;;;;;;24.00;54.19;95917.44;5034177;28;20049;-29
2023/06/13 01:28:43;;;;;;;5.07;2.42;;;;;;;24.07;54.09;95910.53;5045077;28;20043;-29
2023/06/13 01:31:12;;;;;;;2.45;2.22;;;;;;;23.93;54.09;95912.53;5038967;28;20040;-28
2023/06/13 01:33:38;;;;;;;2.22;2.00;;;;;;;23.94;54.13;95917.53;5041912;28;20379;-29
2023/06/13 01:36:04;;;;;;;3.15;2.03;;;;;;;23.98;53.85;95906.88;5034766;28;20029;-29
2023/06/13 01:38:30;;;;;;;2.70;2.05;;;;;;;24.03;53.98;95904.56;5035070;28;20523;-29
2023/06/13 01:44:19;;;;;;;3.20;2.63;;;;;;;24.00;54.32;95917.44;5038650;28;20044;-28
2023/06/13 01:46:57;;;;;;;2.63;2.10;;;;;;;23.99;54.47;95913.16;5041753;28;20025;-29
2023/06/13 01:49:47;;;;;;;2.80;2.20;;;;;;;24.18;53.61;95916.66;5034409;28;20041;-29
2023/06/13 01:52:23;;;;;;;3.20;2.15;;;;;;;24.14;54.04;95930.06;5028192;28;20029;-29
2023/06/13 01:54:53;;;;;;;3.00;2.20;;;;;;;24.20;53.68;95930.72;5034668;28;20126;-29
2023/06/13 01:57:26;;;;;;;3.22;2.40;;;;;;;24.07;54.29;95939.00;5039178;28;20405;-29
2023/06/13 01:59:55;;;;;;;2.92;2.58;;;;;;;24.06;54.42;95931.22;5049029;28;20024;-29
2023/06/13 02:02:23;;;;;;;4.82;2.60;;;;;;;24.15;54.22;95939.88;5034566;28;20485;-28
2023/06/13 02:04:49;;;;;;;4.70;2.25;;;;;;;24.19;53.98;95945.09;5034241;28;20049;-29
2023/06/13 02:07:15;;;;;;;2.78;2.30;;;;;;;24.21;53.97;95948.09;5041342;28;20021;-29
2023/06/13 02:09:40;;;;;;;2.67;2.10;;;;;;;24.19;54.01;95953.41;5041900;28;20021;-29
2023/06/13 02:12:06;;;;;;;3.25;2.10;;;;;;;24.24;53.86;95944.28;5041423;28;20016;-29
2023/06/13 02:14:32;;;;;;;3.00;2.50;;;;;;;24.22;53.86;95950.38;5033973;28;20105;-29
2023/06/13 02:16:59;;;;;;;3.70;1.95;;;;;;;24.24;54.02;95945.03;5034171;28;20444;-29
2023/06/13 02:19:25;;;;;;;3.38;1.90;;;;;;;24.09;54.36;95944.75;5041532;28;20511;-29
2023/06/13 02:21:51;;;;;;;2.50;1.80;;;;;;;24.07;54.47;95954.88;5038770;28;20029;-28
2023/06/13 02:24:18;;;;;;;2.85;2.15;;;;;;;24.17;54.47;95951.16;5042571;28;20059;-29
2023/06/13 02:26:44;;;;;;;4.35;2.67;;;;;;;24.29;53.71;95949.00;5034837;28;20112;-29
2023/06/13 02:29:10;;;;;;;3.30;2.30;;;;;;;24.10;54.20;95945.50;5033836;28;20096;-29
2023/06/13 02:31:38;;;;;;;4.75;2.17;;;;;;;24.28;53.72;95955.81;5034152;28;20055;-28
2023/06/13 02:34:06;;;;;;;2.90;2.20;;;;;;;24.28;53.85;95958.56;5033857;28;20108;-29
2023/06/13 02:36:32;;;;;;;2.85;1.95;;;;;;;24.10;53.97;95948.28;5034257;28;20032;-29
2023/06/13 02:38:57;;;;;;;3.22;2.40;;;;;;;24.11;54.03;95950.50;5040819;28;20017;-29
2023/06/13 02:41:22;;;;;;;3.03;2.13;;;;;;;24.10;54.29;95943.50;5034180;28;20112;-29
2023/06/13 02:43:48;;;;;;;5.13;2.95;;;;;;;24.16;54.26;95941.38;5033559;28;20388;-29
2023/06/13 02:46:13;;;;;;;4.05;2.20;;;;;;;23.96;54.67;95945.47;5033757;28;20025;-29
2023/06/13 02:48:39;;;;;;;3.50;2.20;;;;;;;24.11;54.27;95939.41;5033683;28;20033;-28
2023/06/13 02:51:07;;;;;;;5.47;2.40;;;;;;;24.22;53.93;95932.97;5029055;28;20075;-29
2023/06/13 02:53:33;;;;;;;3.25;2.17;;;;;;;24.23;53.95;95923.41;5037217;28;20388;-29
2023/06/13 02:55:59;;;;;;;2.53;2.33;;;;;;;24.03;54.48;95921.19;5040702;28;20468;-29
2023/06/13 02:58:24;;;;;;;4.28;2.33;;;;;;;24.23;54.07;95917.88;5033443;28;20053;-29
2023/06/13 03:00:50;;;;;;;2.53;2.22;;;;;;;24.24;53.91;95917.31;5041078;28;20022;-29
2023/06/13 03:03:18;;;;;;;5.88;2.50;;;;;;;24.18;54.34;95910.34;5033664;28;20041;-28
2023/06/13 03:05:56;;;;;;;3.75;2.20;;;;;;;24.23;54.39;95915.09;5040595;28;20144;-29
2023/06/13 03:08:22;;;;;;;3.65;2.50;;;;;;;24.19;54.58;95915.38;5048157;28;20381;-29
2023/06/13 03:10:48;;;;;;;4.80;2.00;;;;;;;24.32;54.01;95920.22;5032381;28;20428;-29
2023/06/13 03:13:15;;;;;;;3.70;2.22;;;;;;;24.32;54.18;95909.13;5033097;28;20026;-29
2023/06/13 03:15:43;;;;;;;3.10;2.30;;;;;;;24.00;54.96;95912.66;5033529;28;20013;-29
2023/06/13 03:18:08;;;;;;;4.13;2.35;;;;;;;24.14;54.81;95907.16;5033137;28;20106;-29
2023/06/13 03:20:37;;;;;;;3.25;2.55;;;;;;;24.00;54.54;95901.56;5032738;28;20053;-29
2023/06/13 03:23:02;;;;;;;4.85;2.35;;;;;;;24.02;54.74;95897.53;5039534;28;20427;-29
2023/06/13 03:25:28;;;;;;;3.42;2.63;;;;;;;23.94;55.37;95886.31;5033760;28;20096;-29
2023/06/13 03:27:53;;;;;;;3.45;2.88;;;;;;;24.16;54.63;95891.50;5033602;28;20029;-29
2023/06/13 03:30:18;;;;;;;3.72;2.63;;;;;;;23.94;55.36;95884.31;5033122;28;20488;-29
2023/06/13 03:32:44;;;;;;;2.65;2.45;;;;;;;23.96;55.10;95881.75;5033424;28;20465;-31
2023/06/13 03:35:09;;;;;;;5.22;2.92;;;;;;;23.98;54.82;95884.00;5040178;28;20026;-29
2023/06/13 03:37:35;;;;;;;4.43;2.80;;;;;;;23.80;55.41;95885.53;5033771;28;20370;-29
2023/06/13 03:40:00;;;;;;;4.43;2.40;;;;;;;23.81;55.23;95878.72;5033260;28;20013;-30
2023/06/13 03:42:26;;;;;;;4.38;3.08;;;;;;;23.72;55.63;95884.66;5040549;28;20028;-29
2023/06/13 03:44:51;;;;;;;3.58;2.33;;;;;;;23.91;55.07;95879.81;5033382;28;20020;-29
2023/06/13 03:47:16;;;;;;;3.50;2.70;;;;;;;23.80;55.21;95877.22;5037974;28;20025;-29
2023/06/13 03:49:43;;;;;;;3.08;2.30;;;;;;;24.11;54.72;95866.66;5036812;28;20376;-29
2023/06/13 03:52:09;;;;;;;4.05;2.50;;;;;;;23.74;55.39;95865.47;5043538;28;20025;-28
2023/06/13 03:54:34;;;;;;;3.88;2.72;;;;;;;23.68;56.01;95864.09;5036344;28;20029;-29
2023/06/13 03:57:00;;;;;;;2.63;2.13;;;;;;;23.71;55.51;95852.72;5036735;28;20049;-29
2023/06/13 03:59:26;;;;;;;4.72;2.45;;;;;;;23.62;55.74;95855.84;5035313;28;20053;-28
2023/06/13 04:01:51;;;;;;;3.10;2.45;;;;;;;23.94;54.87;95864.91;5043640;28;20108;-29
2023/06/13 04:04:17;;;;;;;3.63;2.72;;;;;;;23.77;55.93;95872.00;5044016;28;20469;-28
2023/06/13 04:06:47;;;;;;;3.75;2.67;;;;;;;23.87;55.33;95868.28;5036321;28;20017;-29
2023/06/13 04:09:13;;;;;;;3.22;2.50;;;;;;;23.80;54.86;95880.00;5036821;28;20025;-30
2023/06/13 04:11:38;;;;;;;3.50;2.33;;;;;;;23.87;55.70;95884.16;5036603;28;20023;-29
2023/06/13 04:14:04;;;;;;;3.35;2.30;;;;;;;23.74;55.62;95886.91;5043389;28;20017;-31
2023/06/13 04:16:30;;;;;;;3.72;2.30;;;;;;;23.84;55.64;95893.53;5038253;28;20440;-30
2023/06/13 04:18:55;;;;;;;3.33;2.10;;;;;;;23.90;54.99;95900.47;5042383;28;20018;-29
2023/06/13 04:21:24;;;;;;;4.75;2.63;;;;;;;23.83;55.15;95898.34;5036573;28;20030;-29
2023/06/13 04:23:50;;;;;;;3.17;2.30;;;;;;;23.77;55.70;95905.97;5043257;28;20014;-29
2023/06/13 04:26:17;;;;;;;3.25;2.28;;;;;;;23.70;55.53;95912.13;5036060;28;20330;-29
2023/06/13 04:28:43;;;;;;;4.70;2.40;;;;;;;23.91;55.46;95913.06;5043213;28;20091;-29
2023/06/13 04:31:10;;;;;;;3.15;2.40;;;;;;;23.75;55.70;95918.84;5043112;28;20040;-30
2023/06/13 04:33:39;;;;;;;3.03;2.00;;;;;;;23.78;55.98;95924.06;5035978;28;20022;-29
2023/06/13 04:36:08;;;;;;;5.07;2.22;;;;;;;23.87;55.71;95920.91;5035778;28;20465;-29
2023/06/13 04:38:35;;;;;;;2.33;1.95;;;;;;;23.99;55.22;95916.69;5036101;28;20405;-30
2023/06/13 04:41:01;;;;;;;3.22;2.10;;;;;;;23.90;55.70;95908.78;5042947;28;20527;-29
2023/06/13 04:43:33;;;;;;;4.07;2.53;;;;;;;23.84;55.87;95896.31;5042832;28;20087;-30
2023/06/13 04:46:02;;;;;;;3.57;2.43;;;;;;;23.91;55.51;95899.19;5035955;28;20018;-28
2023/06/13 04:48:28;;;;;;;2.58;2.05;;;;;;;23.77;56.03;95900.44;5035664;28;20266;-31
2023/06/13 04:50:54;;;;;;;2.67;2.10;;;;;;;24.00;55.51;95904.34;5035938;28;20033;-29
2023/06/13 04:53:21;;;;;;;2.40;2.00;;;;;;;23.97;55.57;95910.94;5040345;28;20029;-31
2023/06/13 04:55:50;;;;;;;4.22;2.10;;;;;;;23.92;55.83;95903.47;5037372;28;20552;-30
2023/06/13 04:58:17;;;;;;;2.45;1.92;;;;;;;23.92;55.59;95900.69;5028788;28;20033;-29
2023/06/13 05:00:47;;;;;;;2.47;1.90;;;;;;;24.09;55.23;95910.78;5041523;28;20060;-29
2023/06/13 05:03:16;;;;;;;1.88;1.67;;;;;;;24.05;55.11;95915.88;5036056;28;20017;-29
2023/06/13 05:05:43;;;;;;;4.07;1.80;;;;;;;24.17;54.94;95908.88;5035149;28;20396;-29
2023/06/13 05:08:09;;;;;;;3.17;2.20;;;;;;;24.02;55.49;95916.91;5038533;28;20464;-29
2023/06/13 05:10:35;;;;;;;3.40;2.30;;;;;;;24.15;55.04;95919.72;5042314;28;20071;-29
2023/06/13 05:13:01;;;;;;;3.35;2.08;;;;;;;24.21;54.97;95925.94;5035009;28;20025;-29
2023/06/13 05:15:30;;;;;;;2.30;1.90;;;;;;;24.15;55.22;95928.78;5035602;28;20027;-30
2023/06/13 05:17:56;;;;;;;3.10;2.05;;;;;;;23.96;55.81;95937.16;5041633;28;20025;-30
2023/06/13 05:20:25;;;;;;;4.05;2.35;;;;;;;23.95;55.99;95934.91;5043298;28;20094;-29
2023/06/13 05:22:52;;;;;;;4.07;2.40;;;;;;;24.13;55.62;95947.94;5034108;28;20106;-29
2023/06/13 05:25:19;;;;;;;2.80;2.13;;;;;;;24.07;55.76;95941.03;5035279;28;20450;-28
2023/06/13 05:27:45;;;;;;;2.63;2.08;;;;;;;24.00;55.76;95940.34;5035036;28;20075;-31
2023/06/13 05:30:11;;;;;;;2.60;2.28;;;;;;;24.05;55.82;95938.03;5030709;28;20021;-29
2023/06/13 05:32:36;;;;;;;4.10;2.20;;;;;;;24.07;55.65;95944.53;5034901;28;20104;-29
2023/06/13 05:35:03;;;;;;;2.30;1.92;;;;;;;24.08;55.90;95943.25;5034590;28;20025;-29
2023/06/13 05:37:28;;;;;;;2.95;2.00;;;;;;;24.20;55.46;95949.38;5041789;28;20063;-29
2023/06/13 05:39:55;;;;;;;3.65;2.38;;;;;;;24.14;55.70;95941.13;5027418;28;20049;-30
2023/06/13 05:42:20;;;;;;;2.38;2.10;;;;;;;24.02;56.06;95941.84;5042004;28;20373;-29
2023/06/13 05:44:46;;;;;;;3.65;2.20;;;;;;;24.19;55.69;95954.16;5035054;28;20013;-29
2023/06/13 05:47:11;;;;;;;3.58;2.28;;;;;;;24.20;55.72;95952.13;5041712;28;20018;-29
2023/06/13 05:49:36;;;;;;;3.55;2.10;;;;;;;24.13;55.78;95952.75;5041356;28;20020;-29
2023/06/13 05:52:02;;;;;;;2.60;2.10;;;;;;;24.19;55.31;95956.19;5041241;28;20492;-30
2023/06/13 05:54:27;;;;;;;2.25;2.03;;;;;;;24.17;55.33;95953.19;5034422;28;20026;-28
2023/06/13 05:56:53;;;;;;;3.35;2.30;;;;;;;24.19;55.27;95958.97;5034371;28;20103;-29
2023/06/13 05:59:18;;;;;;;3.58;2.08;;;;;;;24.19;55.61;95965.25;5038159;28;20071;-29
2023/06/13 06:01:45;;;;;;;5.00;2.22;;;;;;;24.13;55.51;95958.28;5037890;28;20027;-29
2023/06/13 06:04:11;;;;;;;3.70;2.40;;;;;;;24.02;55.61;95972.31;5043255;28;20017;-29
2023/06/13 06:06:37;;;;;;;8.05;2.47;;;;;;;24.27;54.87;95968.16;5039358;28;20022;-29
2023/06/13 06:09:03;;;;;;;5.30;2.35;;;;;;;24.19;55.26;95970.78;5034222;28;20456;-29
2023/06/13 06:11:30;;;;;;;4.63;2.70;;;;;;;23.99;56.05;95972.09;5034182;28;20100;-29
2023/06/13 06:13:56;;;;;;;3.30;2.33;;;;;;;24.19;55.77;95984.63;5033607;28;20091;-29
2023/06/13 06:16:21;;;;;;;5.80;3.33;;;;;;;24.40;55.17;95982.06;5041421;28;20029;-29
2023/06/13 06:18:48;;;;;;;3.50;2.45;;;;;;;24.27;55.70;95982.03;5034018;28;20474;-29
2023/06/13 06:21:14;;;;;;;3.90;2.92;;;;;;;24.14;56.07;95974.38;5033897;28;20017;-28
2023/06/13 06:23:42;;;;;;;5.30;2.80;;;;;;;24.20;56.05;95974.31;5040695;28;20010;-29
2023/06/13 06:26:08;;;;;;;5.53;2.60;;;;;;;23.98;56.94;95976.13;5033963;28;20028;-29
2023/06/13 06:28:33;;;;;;;5.07;3.00;;;;;;;24.23;56.18;95968.47;5035751;28;20032;-29
2023/06/13 06:31:00;;;;;;;4.60;2.70;;;;;;;24.30;56.19;95969.88;5039484;28;20408;-29
2023/06/13 06:33:25;;;;;;;3.38;2.50;;;;;;;24.26;56.18;95977.75;5041277;28;20112;-29
2023/06/13 06:35:52;;;;;;;4.15;2.90;;;;;;;24.33;56.21;95977.16;5032644;28;20456;-31
2023/06/13 06:38:18;;;;;;;5.38;3.47;;;;;;;24.25;56.55;95977.00;5033841;28;20131;-29
2023/06/13 06:40:43;;;;;;;6.40;3.25;;;;;;;24.21;56.75;95978.56;5035395;28;20120;-29
2023/06/13 06:43:08;;;;;;;6.07;3.20;;;;;;;24.29;56.59;95976.69;5046718;28;20032;-29
2023/06/13 06:45:34;;;;;;;4.38;3.13;;;;;;;24.30;56.99;95976.19;5040372;28;20078;-29
2023/06/13 06:48:01;;;;;;;4.72;2.88;;;;;;;24.22;57.01;95977.31;5034107;28;20021;-29
2023/06/13 06:50:27;;;;;;;4.18;3.20;;;;;;;24.27;56.78;95973.72;5032328;28;20534;-29
2023/06/13 06:52:52;;;;;;;3.80;2.88;;;;;;;24.35;56.62;95969.06;5033967;28;20030;-30
2023/06/13 06:55:18;;;;;;;3.35;3.05;;;;;;;24.20;57.25;95966.00;5037685;28;20025;-29
2023/06/13 06:57:44;;;;;;;4.40;3.25;;;;;;;24.22;57.59;95971.75;5036225;28;20096;-29
2023/06/13 07:00:14;;;;;;;3.70;3.10;;;;;;;24.05;57.96;95969.25;5047841;28;20024;-29
2023/06/13 07:02:40;;;;;;;3.97;3.17;;;;;;;24.39;56.97;95963.94;5033261;28;20029;-31
2023/06/13 07:05:06;;;;;;;4.25;2.70;;;;;;;24.30;57.27;95961.56;5040554;28;20094;-28
2023/06/13 07:07:32;;;;;;;3.22;2.80;;;;;;;24.30;57.25;95958.81;5033809;28;20499;-29
2023/06/13 07:09:58;;;;;;;4.35;3.03;;;;;;;24.40;57.03;95959.13;5040545;28;20100;-30
2023/06/13 07:12:23;;;;;;;5.32;3.00;;;;;;;24.25;57.63;95960.38;5040756;28;20536;-29
2023/06/13 07:14:49;;;;;;;5.93;3.35;;;;;;;24.41;57.21;95955.84;5033258;28;20416;-29
2023/06/13 07:17:15;;;;;;;4.82;3.05;;;;;;;24.45;56.90;95959.06;5033558;28;20044;-29
2023/06/13 07:19:40;;;;;;;5.75;2.92;;;;;;;24.31;57.56;95965.84;5032014;28;20017;-29
2023/06/13 07:22:05;;;;;;;5.43;2.80;;;;;;;24.33;57.16;95964.03;5040490;28;20024;-30
2023/06/13 07:24:31;;;;;;;3.92;3.10;;;;;;;24.50;56.27;95963.75;5043303;28;20066;-29
2023/06/13 07:26:56;;;;;;;4.22;2.75;;;;;;;24.70;55.81;95957.59;5042568;28;20017;-29
2023/06/13 07:29:22;;;;;;;3.80;2.42;;;;;;;24.46;56.98;95946.69;5037271;28;20362;-29
2023/06/13 07:31:47;;;;;;;3.97;3.15;;;;;;;24.46;56.72;95951.50;5034398;28;20028;-29
2023/06/13 07:34:12;;;;;;;4.50;3.28;;;;;;;24.45;56.59;95947.22;5036725;28;20480;-30
2023/06/13 07:36:38;;;;;;;3.80;3.15;;;;;;;24.34;57.31;95946.13;5044595;28;20055;-29
2023/06/13 07:39:13;;;;;;;4.75;3.30;;;;;;;24.31;57.37;95938.88;5044202;28;20053;-31
2023/06/13 07:41:38;;;;;;;3.50;2.78;;;;;;;24.63;56.45;95926.97;5044585;28;20021;-29
2023/06/13 07:44:05;;;;;;;3.95;2.95;;;;;;;24.64;55.86;95926.44;5036682;28;20021;-30
2023/06/13 07:46:31;;;;;;;4.60;2.88;;;;;;;24.66;56.37;95928.69;5036822;28;20395;-30
2023/06/13 07:48:56;;;;;;;3.85;2.80;;;;;;;24.80;56.07;95919.09;5044376;28;20025;-30
2023/06/13 07:51:22;;;;;;;4.20;3.20;;;;;;;24.65;56.58;95924.41;5042020;28;20032;-29
2023/06/13 07:53:47;;;;;;;4.43;3.35;;;;;;;24.76;56.24;95920.69;5038704;28;20401;-29
2023/06/13 07:56:13;;;;;;;5.78;2.95;;;;;;;24.70;56.33;95910.47;5036292;28;20540;-31
2023/06/13 07:58:39;;;;;;;5.80;3.25;;;;;;;24.69;56.11;95914.50;5036594;28;20053;-30
2023/06/13 08:01:04;;;;;;;4.18;3.38;;;;;;;24.94;55.41;95911.56;5044366;28;20045;-29
2023/06/13 08:03:30;;;;;;;3.63;3.25;;;;;;;24.84;55.83;95916.75;5036614;28;20107;-29
2023/06/13 08:05:56;;;;;;;7.45;3.13;;;;;;;24.86;55.68;95896.78;5036725;28;20033;-29
2023/06/13 08:08:21;;;;;;;4.70;2.85;;;;;;;24.85;55.90;95893.25;5036683;28;20083;-29
2023/06/13 08:10:46;;;;;;;5.13;3.30;;;;;;;24.80;56.18;95893.38;5036557;28;20412;-30
2023/06/13 08:13:12;;;;;;;3.35;3.05;;;;;;;24.86;55.86;95894.00;5036454;28;20017;-29
2023/06/13 08:15:37;;;;;;;4.72;3.40;;;;;;;24.83;56.12;95900.66;5043805;28;20384;-29
2023/06/13 08:18:04;;;;;;;3.95;2.95;;;;;;;24.80;55.86;95907.25;5043183;28;20028;-29
2023/06/13 08:20:30;;;;;;;6.72;3.42;;;;;;;24.74;56.21;95910.13;5036616;28;20020;-30
2023/06/13 08:22:56;;;;;;;5.45;3.30;;;;;;;24.59;56.79;95902.34;5041165;28;20017;-29
2023/06/13 08:25:22;;;;;;;5.35;3.50;;;;;;;24.97;55.59;95907.72;5037690;28;20376;-29
2023/06/13 08:27:48;;;;;;;6.78;3.40;;;;;;;24.97;55.83;95918.81;5039714;28;20020;-29
2023/06/13 08:30:14;;;;;;;6.78;3.40;;;;;;;24.88;56.08;95914.38;5039164;28;20044;-29
2023/06/13 08:32:41;;;;;;;6.88;3.50;;;;;;;24.90;56.12;95916.63;5043196;28;20060;-29
2023/06/13 08:35:07;;;;;;;6.65;3.63;;;;;;;24.77;56.68;95916.63;5035718;28;20025;-29
2023/06/13 08:37:34;;;;;;;6.60;3.58;;;;;;;25.04;55.73;95923.69;5036231;28;20095;-29
2023/06/13 08:40:00;;;;;;;5.15;3.50;;;;;;;24.95;55.95;95924.13;5035992;28;20014;-29
2023/06/13 08:42:26;;;;;;;4.10;3.50;;;;;;;24.92;56.90;95936.28;5043311;28;20033;-29
2023/06/13 08:44:52;;;;;;;3.95;3.30;;;;;;;25.02;56.99;95940.13;5050108;28;20111;-29
2023/06/13 08:47:18;;;;;;;6.00;3.75;;;;;;;25.10;56.06;95940.25;5035520;28;20096;-29
2023/06/13 08:49:50;;;;;;;6.57;3.47;;;;;;;25.06;56.26;95940.56;5035934;28;20492;-29
2023/06/13 08:52:17;;;;;;;5.05;3.40;;;;;;;24.94;56.75;95945.59;5034502;28;20021;-29
2023/06/13 08:54:44;;;;;;;6.40;3.63;;;;;;;24.93;57.71;95944.09;5035339;28;20021;-29
2023/06/13 08:57:15;;;;;;;6.82;3.92;;;;;;;24.90;57.06;95942.34;5038410;28;20052;-29
2023/06/13 08:59:44;;;;;;;3.85;3.45;;;;;;;24.86;57.28;95949.47;5045828;28;20022;-29
2023/06/13 09:02:17;;;;;;;3.53;3.17;;;;;;;24.94;56.95;95947.59;5035951;28;20017;-29
2023/06/13 09:04:44;;;;;;;5.53;3.13;;;;;;;24.87;57.70;95948.19;5041654;28;20013;-29
2023/06/13 09:07:10;;;;;;;5.03;3.17;;;;;;;24.95;56.99;95949.09;5035994;28;20362;-29
2023/06/13 09:09:37;;;;;;;4.25;3.42;;;;;;;25.01;56.98;95949.72;5035363;28;20024;-29
2023/06/13 09:12:04;;;;;;;6.50;3.22;;;;;;;24.97;56.93;95944.50;5042122;28;20033;-29
2023/06/13 09:14:29;;;;;;;4.28;3.30;;;;;;;25.07;56.37;95941.31;5027999;28;20018;-30
2023/06/13 09:16:55;;;;;;;5.50;3.38;;;;;;;25.05;56.10;95945.38;5035370;28;20492;-29
2023/06/13 09:19:20;;;;;;;5.97;3.67;;;;;;;24.87;56.65;95937.09;5035292;28;20029;-29
2023/06/13 09:21:46;;;;;;;4.28;3.38;;;;;;;24.94;56.42;95928.19;5035223;28;20446;-29
2023/06/13 09:24:15;;;;;;;5.38;3.70;;;;;;;25.08;56.28;95929.69;5048943;28;20112;-28
2023/06/13 09:26:40;;;;;;;4.88;3.58;;;;;;;25.07;56.39;95922.63;5030906;28;20044;-29
2023/06/13 09:29:07;;;;;;;5.15;3.72;;;;;;;24.99;56.58;95908.66;5034630;28;20017;-30
2023/06/13 09:31:36;;;;;;;5.35;3.72;;;;;;;25.12;56.08;95899.56;5033697;28;20104;-30
2023/06/13 09:34:02;;;;;;;6.82;4.05;;;;;;;24.97;56.33;95888.28;5035002;28;20055;-29
2023/06/13 09:36:27;;;;;;;6.45;3.65;;;;;;;24.98;56.34;95882.19;5034324;28;20026;-29
2023/06/13 09:38:56;;;;;;;7.30;3.88;;;;;;;25.12;55.94;95882.16;5042348;28;20075;-30
2023/06/13 09:41:21;;;;;;;7.20;3.83;;;;;;;25.19;55.52;95882.28;5034483;28;20068;-29
2023/06/13 09:43:50;;;;;;;6.05;3.40;;;;;;;25.07;55.80;95891.38;5034907;28;20017;-29
2023/06/13 09:46:18;;;;;;;4.38;3.85;;;;;;;25.06;55.60;95885.06;5034353;28;20079;-30
2023/06/13 09:48:44;;;;;;;5.75;4.13;;;;;;;25.21;55.19;95882.50;5041469;28;20037;-28
2023/06/13 09:51:13;;;;;;;4.97;3.90;;;;;;;25.20;55.11;95878.22;5034710;28;20454;-29
2023/06/13 09:53:39;;;;;;;4.78;4.03;;;;;;;25.32;54.38;95889.81;5034366;28;20052;-30
2023/06/13 09:56:11;;;;;;;4.43;3.40;;;;;;;25.15;54.97;95886.66;5034720;28;20543;-30
2023/06/13 09:58:37;;;;;;;4.00;3.60;;;;;;;25.18;54.80;95891.88;5034507;28;20033;-29
2023/06/13 10:01:06;;;;;;;4.53;3.97;;;;;;;25.13;55.66;95895.50;5047921;28;20040;-30
2023/06/13 10:03:31;;;;;;;4.90;3.92;;;;;;;24.99;55.79;95896.81;5039361;28;20107;-29
2023/06/13 10:05:58;;;;;;;5.75;3.80;;;;;;;25.10;55.44;95881.97;5043385;28;20516;-29
2023/06/13 10:08:24;;;;;;;4.28;3.50;;;;;;;25.07;55.95;95869.91;5027139;28;20036;-29
2023/06/13 10:10:49;;;;;;;5.65;3.88;;;;;;;25.03;55.74;95870.25;5034187;28;20112;-29
2023/06/13 10:13:19;;;;;;;6.70;3.88;;;;;;;25.10;55.42;95857.72;5035409;28;20025;-28
2023/06/13 10:15:51;;;;;;;5.95;4.72;;;;;;;25.08;55.62;95849.22;5039321;28;20028;-28
2023/06/13 10:18:20;;;;;;;8.30;4.63;;;;;;;25.19;55.35;95854.53;5041109;28;20072;-29
2023/06/13 10:20:48;;;;;;;4.75;4.10;;;;;;;24.98;55.88;95865.53;5034060;28;20025;-29
2023/06/13 10:23:18;;;;;;;4.75;4.03;;;;;;;24.98;56.09;95878.66;5033879;28;20048;-30
2023/06/13 10:25:48;;;;;;;4.63;4.10;;;;;;;24.99;56.34;95885.72;5027389;28;20238;-29
2023/06/13 10:28:34;;;;;;;7.28;3.92;;;;;;;25.01;56.02;95872.81;5040862;28;20026;-29
2023/06/13 10:31:41;;;;;;;4.97;3.78;;;;;;;25.01;55.63;95863.72;5033958;28;20488;-29
2023/06/13 10:34:22;;;;;;;4.70;3.55;;;;;;;25.20;54.89;95861.56;5033765;28;20042;-29
2023/06/13 10:37:03;;;;;;;3.50;3.03;;;;;;;25.03;55.17;95864.69;5041383;28;20041;-29
2023/06/13 10:40:06;;;;;;;5.45;3.88;;;;;;;25.10;54.79;95852.19;5033769;28;20025;-30
2023/06/13 10:42:48;;;;;;;10.98;6.40;;;;;;;25.01;54.72;95858.19;5031187;28;20038;-30
2023/06/13 10:45:23;;;;;;;9.00;5.57;;;;;;;24.91;54.35;95868.19;5028573;28;20109;-30
2023/06/13 10:47:48;;;;;;;5.78;4.07;;;;;;;24.95;53.49;95868.66;5033723;28;20044;-29
2023/06/13 10:50:17;;;;;;;6.45;2.67;;;;;;;24.78;53.88;95879.31;5033717;28;20068;-29
2023/06/13 10:52:45;;;;;;;4.70;2.50;;;;;;;24.96;53.26;95881.25;5033242;28;20021;-30
2023/06/13 10:55:22;;;;;;;3.85;2.08;;;;;;;24.94;53.58;95872.72;5026814;28;20428;-29
2023/06/13 10:57:59;;;;;;;4.45;2.40;;;;;;;24.78;53.88;95873.75;5040630;28;20037;-29
2023/06/13 11:00:34;;;;;;;5.13;3.35;;;;;;;24.96;53.94;95854.25;5039329;28;20025;-29
2023/06/13 11:03:00;;;;;;;5.90;3.53;;;;;;;24.89;54.22;95846.53;5038017;28;20112;-30
2023/06/13 11:05:27;;;;;;;5.07;2.90;;;;;;;24.89;54.28;95870.75;5044589;28;20028;-29
2023/06/13 11:07:57;;;;;;;4.75;2.70;;;;;;;24.88;54.02;95886.66;5044544;28;20049;-29
2023/06/13 11:10:24;;;;;;;4.72;2.60;;;;;;;25.01;53.85;95894.25;5051869;28;20025;-29
2023/06/13 11:12:53;;;;;;;3.58;2.90;;;;;;;24.72;54.88;95914.72;5037577;28;20017;-29
2023/06/13 11:15:36;;;;;;;3.42;2.78;;;;;;;24.90;54.64;95917.38;5037575;28;20464;-29
2023/06/13 11:18:08;;;;;;;3.45;2.70;;;;;;;24.86;53.97;95907.88;5037447;28;20087;-29
2023/06/13 11:20:55;;;;;;;3.83;2.60;;;;;;;24.65;53.84;95907.78;5044718;28;20426;-29
2023/06/13 11:23:36;;;;;;;2.88;2.47;;;;;;;24.55;54.07;95915.03;5035948;28;20057;-29
2023/06/13 11:26:03;;;;;;;3.75;2.20;;;;;;;24.62;53.56;95908.84;5037335;28;20099;-29
2023/06/13 11:28:30;;;;;;;2.58;2.03;;;;;;;24.67;53.64;95897.66;5035814;28;20083;-28
2023/06/13 11:31:01;;;;;;;3.03;2.40;;;;;;;24.63;53.43;95880.59;5037372;28;20420;-29
2023/06/13 11:33:36;;;;;;;4.68;2.25;;;;;;;24.58;53.21;95880.72;5044673;28;20028;-30
2023/06/13 11:36:03;;;;;;;5.63;2.30;;;;;;;24.45;54.16;95900.84;5041814;28;20113;-29
2023/06/13 11:38:38;;;;;;;5.90;2.05;;;;;;;24.64;54.09;95912.56;5039524;28;20596;-29
2023/06/13 11:41:03;;;;;;;7.93;2.22;;;;;;;24.31;55.64;95924.28;5035463;28;20024;-29